sensor_id;sensor_type;location;lat;lon;timestamp;pressure;altitude;pressure_sealevel;temperature;humidity
57801;BME280;43627;42.728;23.256;2023-06-22T00:01:19;95418.19;;;17.59;100.00
57801;BME280;43627;42.728;23.256;2023-06-22T00:03:46;95411.94;;;17.59;100.00
57801;BME280;43627;42.728;23.256;2023-06-22T00:06:13;95391.88;;;17.58;100.00
57801;BME280;43627;42.728;23.256;2023-06-22T00:08:40;95407.69;;;17.69;100.00
57801;BME280;43627;42.728;23.256;2023-06-22T00:11:07;95411.25;;;17.75;100.00
57801;BME280;43627;42.728;23.256;2023-06-22T00:13:34;95403.72;;;17.81;100.00
57801;BME280;43627;42.728;23.256;2023-06-22T00:16:01;95409.00;;;17.74;100.00
57801;BME280;43627;42.728;23.256;2023-06-22T00:18:28;95393.97;;;17.75;100.00
57801;BME280;43627;42.728;23.256;2023-06-22T00:20:57;95386.19;;;17.79;100.00
57801;BME280;43627;42.728;23.256;2023-06-22T00:23:25;95391.19;;;17.80;100.00
57801;BME280;43627;42.728;23.256;2023-06-22T00:25:52;95378.66;;;17.74;100.00
57801;BME280;43627;42.728;23.256;2023-06-22T00:28:19;95382.59;;;17.56;100.00
57801;BME280;43627;42.728;23.256;2023-06-22T00:30:48;95385.13;;;17.59;100.00
57801;BME280;43627;42.728;23.256;2023-06-22T00:33:15;95391.88;;;17.58;100.00
57801;BME280;43627;42.728;23.256;2023-06-22T00:35:43;95385.88;;;17.54;100.00
57801;BME280;43627;42.728;23.256;2023-06-22T00:38:10;95391.13;;;17.58;100.00
57801;BME280;43627;42.728;23.256;2023-06-22T00:40:37;95389.59;;;17.51;100.00
57801;BME280;43627;42.728;23.256;2023-06-22T00:43:04;95387.13;;;17.59;100.00
57801;BME280;43627;42.728;23.256;2023-06-22T00:45:31;95378.84;;;17.59;100.00
57801;BME280;43627;42.728;23.256;2023-06-22T00:47:58;95380.84;;;17.58;100.00
57801;BME280;43627;42.728;23.256;2023-06-22T00:50:28;95383.34;;;17.56;100.00
57801;BME280;43627;42.728;23.256;2023-06-22T00:53:04;95381.38;;;17.62;100.00
57801;BME280;43627;42.728;23.256;2023-06-22T00:55:37;95382.34;;;17.59;100.00
57801;BME280;43627;42.728;23.256;2023-06-22T00:58:06;95390.13;;;17.55;100.00
57801;BME280;43627;42.728;23.256;2023-06-22T01:00:38;95396.91;;;17.54;100.00
57801;BME280;43627;42.728;23.256;2023-06-22T01:03:05;95412.19;;;17.61;100.00
57801;BME280;43627;42.728;23.256;2023-06-22T01:05:37;95406.44;;;17.64;100.00
57801;BME280;43627;42.728;23.256;2023-06-22T01:11:32;95399.13;;;17.50;100.00
57801;BME280;43627;42.728;23.256;2023-06-22T01:16:37;95398.13;;;17.48;100.00
57801;BME280;43627;42.728;23.256;2023-06-22T01:19:32;95386.09;;;17.45;100.00
57801;BME280;43627;42.728;23.256;2023-06-22T01:22:02;95397.88;;;17.46;100.00
57801;BME280;43627;42.728;23.256;2023-06-22T01:24:33;95398.09;;;17.36;100.00
57801;BME280;43627;42.728;23.256;2023-06-22T01:30:05;95404.34;;;17.37;100.00
57801;BME280;43627;42.728;23.256;2023-06-22T01:32:34;95411.63;;;17.40;100.00
57801;BME280;43627;42.728;23.256;2023-06-22T01:35:04;95404.56;;;17.33;100.00
57801;BME280;43627;42.728;23.256;2023-06-22T01:37:33;95414.59;;;17.31;100.00
57801;BME280;43627;42.728;23.256;2023-06-22T01:40:02;95412.84;;;17.28;100.00
57801;BME280;43627;42.728;23.256;2023-06-22T01:42:31;95408.03;;;17.23;100.00
57801;BME280;43627;42.728;23.256;2023-06-22T01:44:59;95412.38;;;16.87;100.00
57801;BME280;43627;42.728;23.256;2023-06-22T01:47:26;95405.56;;;16.76;100.00
57801;BME280;43627;42.728;23.256;2023-06-22T01:49:55;95400.53;;;16.75;100.00
57801;BME280;43627;42.728;23.256;2023-06-22T01:52:22;95416.88;;;16.84;100.00
57801;BME280;43627;42.728;23.256;2023-06-22T01:54:49;95420.88;;;16.83;100.00
57801;BME280;43627;42.728;23.256;2023-06-22T01:57:16;95427.38;;;16.80;100.00
57801;BME280;43627;42.728;23.256;2023-06-22T02:02:25;95441.16;;;16.80;100.00
57801;BME280;43627;42.728;23.256;2023-06-22T02:04:57;95445.41;;;16.81;100.00
57801;BME280;43627;42.728;23.256;2023-06-22T02:07:29;95438.59;;;16.71;100.00
57801;BME280;43627;42.728;23.256;2023-06-22T02:09:59;95440.00;;;16.66;100.00
57801;BME280;43627;42.728;23.256;2023-06-22T02:12:28;95436.09;;;16.73;100.00
57801;BME280;43627;42.728;23.256;2023-06-22T02:14:57;95431.47;;;16.59;100.00
57801;BME280;43627;42.728;23.256;2023-06-22T02:17:25;95425.84;;;16.42;100.00
57801;BME280;43627;42.728;23.256;2023-06-22T02:19:52;95429.78;;;16.35;100.00
57801;BME280;43627;42.728;23.256;2023-06-22T02:22:20;95423.75;;;16.31;100.00
57801;BME280;43627;42.728;23.256;2023-06-22T02:24:46;95432.44;;;16.24;100.00
57801;BME280;43627;42.728;23.256;2023-06-22T02:27:13;95430.19;;;16.22;100.00
57801;BME280;43627;42.728;23.256;2023-06-22T02:29:40;95404.84;;;16.13;100.00
57801;BME280;43627;42.728;23.256;2023-06-22T02:32:07;95415.25;;;16.03;100.00
57801;BME280;43627;42.728;23.256;2023-06-22T02:34:34;95416.78;;;16.04;100.00
57801;BME280;43627;42.728;23.256;2023-06-22T02:37:01;95426.19;;;15.97;100.00
57801;BME280;43627;42.728;23.256;2023-06-22T02:39:29;95412.25;;;15.75;100.00
57801;BME280;43627;42.728;23.256;2023-06-22T02:41:56;95400.75;;;15.77;100.00
57801;BME280;43627;42.728;23.256;2023-06-22T02:44:22;95415.47;;;15.53;100.00
57801;BME280;43627;42.728;23.256;2023-06-22T02:46:49;95400.06;;;15.35;100.00
57801;BME280;43627;42.728;23.256;2023-06-22T02:49:16;95427.81;;;15.37;100.00
57801;BME280;43627;42.728;23.256;2023-06-22T02:51:47;95423.59;;;15.42;100.00
57801;BME280;43627;42.728;23.256;2023-06-22T02:54:15;95419.84;;;15.39;100.00
57801;BME280;43627;42.728;23.256;2023-06-22T02:56:42;95425.44;;;15.51;100.00
57801;BME280;43627;42.728;23.256;2023-06-22T02:59:12;95426.97;;;15.52;100.00
57801;BME280;43627;42.728;23.256;2023-06-22T03:01:39;95427.66;;;15.67;100.00
57801;BME280;43627;42.728;23.256;2023-06-22T03:04:07;95417.78;;;15.81;100.00
57801;BME280;43627;42.728;23.256;2023-06-22T03:06:35;95410.47;;;15.98;100.00
57801;BME280;43627;42.728;23.256;2023-06-22T03:09:03;95432.97;;;16.28;100.00
57801;BME280;43627;42.728;23.256;2023-06-22T03:11:32;95423.84;;;16.42;100.00
57801;BME280;43627;42.728;23.256;2023-06-22T03:14:02;95422.72;;;16.60;100.00
57801;BME280;43627;42.728;23.256;2023-06-22T03:16:28;95417.47;;;16.62;100.00
57801;BME280;43627;42.728;23.256;2023-06-22T03:18:55;95454.19;;;16.85;100.00
57801;BME280;43627;42.728;23.256;2023-06-22T03:21:23;95460.97;;;16.90;100.00
57801;BME280;43627;42.728;23.256;2023-06-22T03:23:50;95454.75;;;16.95;100.00
57801;BME280;43627;42.728;23.256;2023-06-22T03:26:18;95452.63;;;17.16;100.00
57801;BME280;43627;42.728;23.256;2023-06-22T03:28:45;95454.94;;;17.28;100.00
57801;BME280;43627;42.728;23.256;2023-06-22T03:31:11;95455.56;;;17.60;100.00
57801;BME280;43627;42.728;23.256;2023-06-22T03:33:38;95457.72;;;18.16;100.00
57801;BME280;43627;42.728;23.256;2023-06-22T03:36:05;95463.28;;;18.89;100.00
57801;BME280;43627;42.728;23.256;2023-06-22T03:38:35;95461.69;;;19.21;100.00
57801;BME280;43627;42.728;23.256;2023-06-22T03:41:08;95463.19;;;19.28;100.00
57801;BME280;43627;42.728;23.256;2023-06-22T03:43:36;95470.72;;;19.27;100.00
57801;BME280;43627;42.728;23.256;2023-06-22T03:46:06;95484.56;;;19.27;100.00
57801;BME280;43627;42.728;23.256;2023-06-22T03:48:35;95495.53;;;19.55;100.00
57801;BME280;43627;42.728;23.256;2023-06-22T03:51:02;95496.13;;;19.95;100.00
57801;BME280;43627;42.728;23.256;2023-06-22T03:53:30;95491.50;;;20.14;100.00
57801;BME280;43627;42.728;23.256;2023-06-22T03:55:57;95479.09;;;19.80;100.00
57801;BME280;43627;42.728;23.256;2023-06-22T03:58:24;95441.34;;;19.13;100.00
57801;BME280;43627;42.728;23.256;2023-06-22T04:00:52;95455.19;;;19.02;100.00
57801;BME280;43627;42.728;23.256;2023-06-22T04:03:19;95489.75;;;19.53;100.00
57801;BME280;43627;42.728;23.256;2023-06-22T04:05:47;95477.22;;;19.99;100.00
57801;BME280;43627;42.728;23.256;2023-06-22T04:08:15;95431.59;;;20.52;100.00
57801;BME280;43627;42.728;23.256;2023-06-22T04:10:42;95404.44;;;21.00;100.00
57801;BME280;43627;42.728;23.256;2023-06-22T04:13:09;95421.22;;;21.94;98.82
57801;BME280;43627;42.728;23.256;2023-06-22T04:15:36;95465.63;;;22.64;89.78
57801;BME280;43627;42.728;23.256;2023-06-22T04:18:03;95459.25;;;23.14;86.04
57801;BME280;43627;42.728;23.256;2023-06-22T04:20:31;95466.22;;;23.47;81.92
57801;BME280;43627;42.728;23.256;2023-06-22T04:23:00;95470.66;;;24.16;76.46
57801;BME280;43627;42.728;23.256;2023-06-22T04:25:27;95437.22;;;24.50;70.68
57801;BME280;43627;42.728;23.256;2023-06-22T04:27:54;95452.63;;;25.14;65.49
57801;BME280;43627;42.728;23.256;2023-06-22T04:30:20;95462.34;;;25.00;63.25
57801;BME280;43627;42.728;23.256;2023-06-22T04:32:47;95460.41;;;24.87;65.80
57801;BME280;43627;42.728;23.256;2023-06-22T04:35:24;95461.16;;;24.67;66.88
57801;BME280;43627;42.728;23.256;2023-06-22T04:37:57;95461.50;;;24.84;68.22
57801;BME280;43627;42.728;23.256;2023-06-22T04:40:24;95473.94;;;25.04;65.47
57801;BME280;43627;42.728;23.256;2023-06-22T04:42:52;95473.47;;;25.13;65.24
57801;BME280;43627;42.728;23.256;2023-06-22T04:45:20;95482.53;;;25.34;63.73
57801;BME280;43627;42.728;23.256;2023-06-22T04:47:48;95487.69;;;25.51;64.49
57801;BME280;43627;42.728;23.256;2023-06-22T04:50:16;95477.31;;;25.59;62.10
57801;BME280;43627;42.728;23.256;2023-06-22T04:52:44;95481.47;;;26.10;58.66
57801;BME280;43627;42.728;23.256;2023-06-22T04:55:12;95485.16;;;26.05;59.99
57801;BME280;43627;42.728;23.256;2023-06-22T04:57:41;95468.03;;;26.01;61.12
57801;BME280;43627;42.728;23.256;2023-06-22T05:00:11;95482.22;;;26.10;64.14
57801;BME280;43627;42.728;23.256;2023-06-22T05:02:39;95481.25;;;26.52;57.34
57801;BME280;43627;42.728;23.256;2023-06-22T05:05:08;95473.81;;;26.69;56.17
57801;BME280;43627;42.728;23.256;2023-06-22T05:07:36;95488.56;;;26.85;54.12
57801;BME280;43627;42.728;23.256;2023-06-22T05:10:03;95469.94;;;26.72;54.43
57801;BME280;43627;42.728;23.256;2023-06-22T05:12:31;95455.59;;;26.25;57.53
57801;BME280;43627;42.728;23.256;2023-06-22T05:14:58;95480.69;;;26.45;59.35
57801;BME280;43627;42.728;23.256;2023-06-22T05:17:25;95479.75;;;26.51;57.89
57801;BME280;43627;42.728;23.256;2023-06-22T05:19:52;95491.38;;;26.85;55.62
57801;BME280;43627;42.728;23.256;2023-06-22T05:22:19;95488.50;;;26.47;57.48
57801;BME280;43627;42.728;23.256;2023-06-22T05:24:50;95490.56;;;26.46;56.68
57801;BME280;43627;42.728;23.256;2023-06-22T05:27:16;95491.88;;;26.45;57.17
57801;BME280;43627;42.728;23.256;2023-06-22T05:29:43;95434.22;;;26.27;54.56
57801;BME280;43627;42.728;23.256;2023-06-22T05:32:10;95449.38;;;26.70;52.37
57801;BME280;43627;42.728;23.256;2023-06-22T05:34:38;95493.16;;;26.52;54.52
57801;BME280;43627;42.728;23.256;2023-06-22T05:37:05;95498.66;;;26.22;55.22
57801;BME280;43627;42.728;23.256;2023-06-22T05:39:32;95503.56;;;26.36;56.67
57801;BME280;43627;42.728;23.256;2023-06-22T05:41:59;95507.22;;;26.16;57.51
57801;BME280;43627;42.728;23.256;2023-06-22T05:44:26;95509.91;;;25.93;58.62
57801;BME280;43627;42.728;23.256;2023-06-22T05:46:52;95507.00;;;25.70;59.31
57801;BME280;43627;42.728;23.256;2023-06-22T05:49:21;95495.50;;;25.53;59.93
57801;BME280;43627;42.728;23.256;2023-06-22T05:51:48;95518.78;;;25.84;61.41
57801;BME280;43627;42.728;23.256;2023-06-22T05:54:15;95513.56;;;26.24;60.88
57801;BME280;43627;42.728;23.256;2023-06-22T05:56:44;95506.25;;;26.13;60.06
57801;BME280;43627;42.728;23.256;2023-06-22T05:59:11;95507.28;;;25.95;60.19
57801;BME280;43627;42.728;23.256;2023-06-22T06:01:38;95501.47;;;25.85;60.40
57801;BME280;43627;42.728;23.256;2023-06-22T06:04:06;95508.09;;;26.03;63.00
57801;BME280;43627;42.728;23.256;2023-06-22T06:06:36;95502.72;;;26.13;62.96
57801;BME280;43627;42.728;23.256;2023-06-22T06:09:04;95500.81;;;26.00;60.42
57801;BME280;43627;42.728;23.256;2023-06-22T06:11:31;95506.41;;;26.00;61.02
57801;BME280;43627;42.728;23.256;2023-06-22T06:13:58;95492.56;;;25.95;63.96
57801;BME280;43627;42.728;23.256;2023-06-22T06:16:24;95494.16;;;26.11;64.48
57801;BME280;43627;42.728;23.256;2023-06-22T06:18:52;95506.19;;;26.42;62.03
57801;BME280;43627;42.728;23.256;2023-06-22T06:21:22;95497.09;;;26.49;61.35
57801;BME280;43627;42.728;23.256;2023-06-22T06:23:49;95504.56;;;26.62;60.81
57801;BME280;43627;42.728;23.256;2023-06-22T06:26:16;95492.84;;;26.71;57.76
57801;BME280;43627;42.728;23.256;2023-06-22T06:28:43;95499.94;;;26.64;57.75
57801;BME280;43627;42.728;23.256;2023-06-22T06:31:10;95495.28;;;26.74;58.19
57801;BME280;43627;42.728;23.256;2023-06-22T06:33:38;95490.63;;;26.85;56.40
57801;BME280;43627;42.728;23.256;2023-06-22T06:36:05;95488.03;;;26.94;56.14
57801;BME280;43627;42.728;23.256;2023-06-22T06:38:32;95479.66;;;27.25;54.59
57801;BME280;43627;42.728;23.256;2023-06-22T06:40:59;95487.31;;;27.24;54.29
57801;BME280;43627;42.728;23.256;2023-06-22T06:43:26;95485.63;;;27.21;54.64
57801;BME280;43627;42.728;23.256;2023-06-22T06:45:53;95485.03;;;27.38;54.69
57801;BME280;43627;42.728;23.256;2023-06-22T06:48:20;95480.66;;;27.91;52.67
57801;BME280;43627;42.728;23.256;2023-06-22T06:50:46;95489.84;;;28.31;51.20
57801;BME280;43627;42.728;23.256;2023-06-22T06:53:13;95474.53;;;28.32;51.97
57801;BME280;43627;42.728;23.256;2023-06-22T06:55:40;95469.63;;;27.93;51.25
57801;BME280;43627;42.728;23.256;2023-06-22T06:58:10;95474.91;;;27.81;54.98
57801;BME280;43627;42.728;23.256;2023-06-22T07:00:40;95478.44;;;27.89;51.35
57801;BME280;43627;42.728;23.256;2023-06-22T07:03:08;95474.94;;;28.21;53.29
57801;BME280;43627;42.728;23.256;2023-06-22T07:05:35;95474.19;;;28.21;50.42
57801;BME280;43627;42.728;23.256;2023-06-22T07:08:01;95476.47;;;28.55;54.00
57801;BME280;43627;42.728;23.256;2023-06-22T07:10:29;95463.19;;;28.80;52.33
57801;BME280;43627;42.728;23.256;2023-06-22T07:12:57;95463.41;;;28.50;51.68
57801;BME280;43627;42.728;23.256;2023-06-22T07:15:24;95482.53;;;28.43;49.92
57801;BME280;43627;42.728;23.256;2023-06-22T07:17:50;95486.31;;;28.23;48.53
57801;BME280;43627;42.728;23.256;2023-06-22T07:20:17;95477.72;;;28.29;52.48
57801;BME280;43627;42.728;23.256;2023-06-22T07:22:46;95476.25;;;28.20;50.50
57801;BME280;43627;42.728;23.256;2023-06-22T07:25:16;95469.41;;;28.06;50.90
57801;BME280;43627;42.728;23.256;2023-06-22T07:27:45;95490.75;;;28.41;52.20
57801;BME280;43627;42.728;23.256;2023-06-22T07:30:13;95463.19;;;28.15;54.37
57801;BME280;43627;42.728;23.256;2023-06-22T07:32:40;95472.72;;;28.12;53.04
57801;BME280;43627;42.728;23.256;2023-06-22T07:35:07;95434.03;;;27.70;52.75
57801;BME280;43627;42.728;23.256;2023-06-22T07:37:34;95478.59;;;28.39;55.34
57801;BME280;43627;42.728;23.256;2023-06-22T07:40:02;95486.97;;;28.79;53.27
57801;BME280;43627;42.728;23.256;2023-06-22T07:42:33;95482.63;;;29.36;50.11
57801;BME280;43627;42.728;23.256;2023-06-22T07:45:00;95490.88;;;29.34;49.38
57801;BME280;43627;42.728;23.256;2023-06-22T07:47:27;95485.69;;;29.05;53.63
57801;BME280;43627;42.728;23.256;2023-06-22T07:49:57;95479.06;;;28.85;51.79
57801;BME280;43627;42.728;23.256;2023-06-22T07:52:25;95495.50;;;28.64;55.38
57801;BME280;43627;42.728;23.256;2023-06-22T07:54:54;95478.81;;;28.66;57.55
57801;BME280;43627;42.728;23.256;2023-06-22T07:57:22;95467.69;;;28.10;58.13
57801;BME280;43627;42.728;23.256;2023-06-22T07:59:48;95473.09;;;28.16;57.41
57801;BME280;43627;42.728;23.256;2023-06-22T08:02:15;95471.13;;;27.94;61.05
57801;BME280;43627;42.728;23.256;2023-06-22T08:04:42;95464.44;;;28.29;59.62
57801;BME280;43627;42.728;23.256;2023-06-22T08:07:09;95460.44;;;28.48;57.44
57801;BME280;43627;42.728;23.256;2023-06-22T08:09:36;95464.50;;;28.54;58.71
57801;BME280;43627;42.728;23.256;2023-06-22T08:12:03;95460.41;;;28.15;67.66
57801;BME280;43627;42.728;23.256;2023-06-22T08:14:30;95450.56;;;27.99;68.15
57801;BME280;43627;42.728;23.256;2023-06-22T08:16:57;95457.22;;;28.11;62.46
57801;BME280;43627;42.728;23.256;2023-06-22T08:19:23;95454.72;;;28.23;64.68
57801;BME280;43627;42.728;23.256;2023-06-22T08:21:50;95455.75;;;28.42;59.80
57801;BME280;43627;42.728;23.256;2023-06-22T08:24:17;95450.69;;;28.49;58.95
57801;BME280;43627;42.728;23.256;2023-06-22T08:26:44;95449.13;;;28.63;61.59
57801;BME280;43627;42.728;23.256;2023-06-22T08:29:10;95453.41;;;28.64;67.60
57801;BME280;43627;42.728;23.256;2023-06-22T08:31:37;95451.72;;;28.61;64.71
57801;BME280;43627;42.728;23.256;2023-06-22T08:34:04;95455.16;;;28.52;73.99
57801;BME280;43627;42.728;23.256;2023-06-22T08:36:31;95440.00;;;28.55;62.89
57801;BME280;43627;42.728;23.256;2023-06-22T08:39:02;95445.66;;;28.07;59.33
57801;BME280;43627;42.728;23.256;2023-06-22T08:41:29;95403.34;;;26.63;70.51
57801;BME280;43627;42.728;23.256;2023-06-22T08:43:57;95416.00;;;26.87;67.25
57801;BME280;43627;42.728;23.256;2023-06-22T08:46:24;95412.66;;;26.73;65.01
57801;BME280;43627;42.728;23.256;2023-06-22T08:48:59;95443.81;;;27.08;58.16
57801;BME280;43627;42.728;23.256;2023-06-22T08:51:26;95438.78;;;27.14;66.05
57801;BME280;43627;42.728;23.256;2023-06-22T08:53:53;95439.28;;;27.51;64.89
57801;BME280;43627;42.728;23.256;2023-06-22T08:56:19;95431.78;;;28.16;65.31
57801;BME280;43627;42.728;23.256;2023-06-22T08:58:46;95437.28;;;28.72;56.74
57801;BME280;43627;42.728;23.256;2023-06-22T09:01:13;95420.00;;;28.51;54.99
57801;BME280;43627;42.728;23.256;2023-06-22T09:03:42;95436.63;;;28.56;51.95
57801;BME280;43627;42.728;23.256;2023-06-22T09:06:09;95429.94;;;28.77;53.95
57801;BME280;43627;42.728;23.256;2023-06-22T09:08:36;95444.91;;;29.04;48.99
57801;BME280;43627;42.728;23.256;2023-06-22T09:11:03;95438.69;;;29.06;50.48
57801;BME280;43627;42.728;23.256;2023-06-22T09:13:30;95436.63;;;28.81;51.37
57801;BME280;43627;42.728;23.256;2023-06-22T09:15:58;95437.31;;;29.14;53.99
57801;BME280;43627;42.728;23.256;2023-06-22T09:18:25;95422.50;;;29.39;54.67
57801;BME280;43627;42.728;23.256;2023-06-22T09:20:51;95437.53;;;29.09;49.28
57801;BME280;43627;42.728;23.256;2023-06-22T09:23:18;95433.66;;;29.04;51.82
57801;BME280;43627;42.728;23.256;2023-06-22T09:25:45;95441.34;;;29.04;49.43
57801;BME280;43627;42.728;23.256;2023-06-22T09:28:14;95428.63;;;29.02;50.24
57801;BME280;43627;42.728;23.256;2023-06-22T09:30:43;95431.38;;;29.10;56.21
57801;BME280;43627;42.728;23.256;2023-06-22T09:33:11;95430.97;;;28.89;52.59
57801;BME280;43627;42.728;23.256;2023-06-22T09:35:38;95442.56;;;28.93;50.43
57801;BME280;43627;42.728;23.256;2023-06-22T09:38:05;95433.06;;;29.30;55.00
57801;BME280;43627;42.728;23.256;2023-06-22T09:40:31;95424.47;;;29.28;54.08
57801;BME280;43627;42.728;23.256;2023-06-22T09:43:01;95428.94;;;28.24;61.37
57801;BME280;43627;42.728;23.256;2023-06-22T09:45:28;95428.84;;;28.07;63.06
57801;BME280;43627;42.728;23.256;2023-06-22T09:47:55;95406.88;;;28.21;60.82
57801;BME280;43627;42.728;23.256;2023-06-22T09:50:22;95399.72;;;27.95;59.89
57801;BME280;43627;42.728;23.256;2023-06-22T09:52:49;95424.22;;;27.94;64.07
57801;BME280;43627;42.728;23.256;2023-06-22T09:55:22;95412.16;;;28.16;63.46
57801;BME280;43627;42.728;23.256;2023-06-22T09:57:52;95422.34;;;28.37;55.57
57801;BME280;43627;42.728;23.256;2023-06-22T10:00:19;95417.16;;;28.58;52.92
57801;BME280;43627;42.728;23.256;2023-06-22T10:02:46;95414.53;;;28.85;50.57
57801;BME280;43627;42.728;23.256;2023-06-22T10:05:14;95419.50;;;29.37;49.10
57801;BME280;43627;42.728;23.256;2023-06-22T10:07:41;95366.97;;;29.29;49.20
57801;BME280;43627;42.728;23.256;2023-06-22T10:10:11;95377.97;;;29.70;49.38
57801;BME280;43627;42.728;23.256;2023-06-22T10:12:46;95409.66;;;30.14;49.80
57801;BME280;43627;42.728;23.256;2023-06-22T10:15:15;95403.75;;;30.47;45.79
57801;BME280;43627;42.728;23.256;2023-06-22T10:17:43;95406.34;;;30.62;47.39
57801;BME280;43627;42.728;23.256;2023-06-22T10:20:10;95396.34;;;30.42;46.79
57801;BME280;43627;42.728;23.256;2023-06-22T10:22:44;95390.78;;;30.25;44.40
57801;BME280;43627;42.728;23.256;2023-06-22T10:25:12;95345.63;;;29.78;45.40
57801;BME280;43627;42.728;23.256;2023-06-22T10:27:39;95383.53;;;30.31;44.44
57801;BME280;43627;42.728;23.256;2023-06-22T10:30:10;95403.53;;;30.89;44.10
57801;BME280;43627;42.728;23.256;2023-06-22T10:32:40;95392.31;;;31.18;43.05
57801;BME280;43627;42.728;23.256;2023-06-22T10:35:08;95402.72;;;31.25;43.19
57801;BME280;43627;42.728;23.256;2023-06-22T10:37:35;95396.34;;;31.35;42.44
57801;BME280;43627;42.728;23.256;2023-06-22T10:40:02;95401.69;;;31.21;40.73
57801;BME280;43627;42.728;23.256;2023-06-22T10:42:30;95392.09;;;30.97;42.27
57801;BME280;43627;42.728;23.256;2023-06-22T10:44:57;95392.84;;;30.97;42.64
57801;BME280;43627;42.728;23.256;2023-06-22T10:47:24;95383.03;;;30.42;42.73
57801;BME280;43627;42.728;23.256;2023-06-22T10:49:51;95390.38;;;30.38;44.67
57801;BME280;43627;42.728;23.256;2023-06-22T10:52:17;95386.94;;;30.30;45.85
57801;BME280;43627;42.728;23.256;2023-06-22T10:54:44;95371.81;;;30.52;45.61
57801;BME280;43627;42.728;23.256;2023-06-22T10:57:11;95373.44;;;30.92;45.82
57801;BME280;43627;42.728;23.256;2023-06-22T10:59:38;95384.00;;;30.64;43.12
57801;BME280;43627;42.728;23.256;2023-06-22T11:02:05;95379.47;;;30.79;42.38
57801;BME280;43627;42.728;23.256;2023-06-22T11:04:31;95380.75;;;30.68;43.41
57801;BME280;43627;42.728;23.256;2023-06-22T11:06:58;95383.22;;;30.91;42.94
57801;BME280;43627;42.728;23.256;2023-06-22T11:09:25;95375.00;;;31.32;43.26
57801;BME280;43627;42.728;23.256;2023-06-22T11:11:55;95381.25;;;31.49;42.82
57801;BME280;43627;42.728;23.256;2023-06-22T11:14:27;95367.44;;;31.63;43.98
57801;BME280;43627;42.728;23.256;2023-06-22T11:16:54;95349.94;;;30.70;43.51
57801;BME280;43627;42.728;23.256;2023-06-22T11:19:21;95373.00;;;30.59;44.06
57801;BME280;43627;42.728;23.256;2023-06-22T11:21:47;95362.28;;;30.48;45.18
57801;BME280;43627;42.728;23.256;2023-06-22T11:24:14;95354.47;;;30.56;44.02
57801;BME280;43627;42.728;23.256;2023-06-22T11:26:42;95367.69;;;30.63;44.10
57801;BME280;43627;42.728;23.256;2023-06-22T11:29:09;95344.97;;;29.70;45.46
57801;BME280;43627;42.728;23.256;2023-06-22T11:31:49;95347.72;;;29.43;44.89
57801;BME280;43627;42.728;23.256;2023-06-22T11:34:16;95357.16;;;29.38;43.91
57801;BME280;43627;42.728;23.256;2023-06-22T11:36:43;95360.34;;;29.17;44.55
57801;BME280;43627;42.728;23.256;2023-06-22T11:39:10;95360.25;;;29.08;47.12
57801;BME280;43627;42.728;23.256;2023-06-22T11:41:38;95370.59;;;28.80;47.06
57801;BME280;43627;42.728;23.256;2023-06-22T11:44:04;95374.75;;;28.54;50.35
57801;BME280;43627;42.728;23.256;2023-06-22T11:46:32;95361.69;;;28.49;48.30
57801;BME280;43627;42.728;23.256;2023-06-22T11:48:59;95349.94;;;28.68;46.70
57801;BME280;43627;42.728;23.256;2023-06-22T11:51:26;95346.53;;;28.94;46.52
57801;BME280;43627;42.728;23.256;2023-06-22T11:53:53;95347.16;;;29.10;48.45
57801;BME280;43627;42.728;23.256;2023-06-22T11:56:20;95355.97;;;29.07;47.75
57801;BME280;43627;42.728;23.256;2023-06-22T11:58:47;95367.75;;;28.63;48.02
57801;BME280;43627;42.728;23.256;2023-06-22T12:01:14;95368.94;;;28.52;48.91
57801;BME280;43627;42.728;23.256;2023-06-22T12:03:41;95357.97;;;28.47;47.99
57801;BME280;43627;42.728;23.256;2023-06-22T12:06:10;95365.34;;;28.34;51.04
57801;BME280;43627;42.728;23.256;2023-06-22T12:08:37;95358.16;;;28.16;61.17
57801;BME280;43627;42.728;23.256;2023-06-22T12:11:06;95366.19;;;27.79;65.97
57801;BME280;43627;42.728;23.256;2023-06-22T12:13:35;95390.63;;;27.16;79.82
57801;BME280;43627;42.728;23.256;2023-06-22T12:16:02;95399.06;;;25.96;96.51
57801;BME280;43627;42.728;23.256;2023-06-22T12:18:28;95399.47;;;24.99;100.00
57801;BME280;43627;42.728;23.256;2023-06-22T12:20:55;95384.34;;;23.69;100.00
57801;BME280;43627;42.728;23.256;2023-06-22T12:23:22;95375.28;;;22.44;100.00
57801;BME280;43627;42.728;23.256;2023-06-22T12:25:49;95354.63;;;21.37;100.00
57801;BME280;43627;42.728;23.256;2023-06-22T12:28:15;95360.22;;;20.64;100.00
57801;BME280;43627;42.728;23.256;2023-06-22T12:30:42;95349.75;;;20.21;100.00
57801;BME280;43627;42.728;23.256;2023-06-22T12:33:09;95355.88;;;20.44;100.00
57801;BME280;43627;42.728;23.256;2023-06-22T12:35:35;95357.78;;;20.79;100.00
57801;BME280;43627;42.728;23.256;2023-06-22T12:38:02;95368.09;;;21.28;100.00
57801;BME280;43627;42.728;23.256;2023-06-22T12:40:29;95375.09;;;21.72;100.00
57801;BME280;43627;42.728;23.256;2023-06-22T12:42:56;95373.06;;;22.10;100.00
57801;BME280;43627;42.728;23.256;2023-06-22T12:45:23;95365.63;;;22.00;100.00
57801;BME280;43627;42.728;23.256;2023-06-22T12:47:51;95372.88;;;22.21;100.00
57801;BME280;43627;42.728;23.256;2023-06-22T12:50:18;95369.91;;;22.33;100.00
57801;BME280;43627;42.728;23.256;2023-06-22T12:52:45;95378.31;;;22.72;100.00
57801;BME280;43627;42.728;23.256;2023-06-22T12:55:12;95371.00;;;23.01;100.00
57801;BME280;43627;42.728;23.256;2023-06-22T12:57:38;95366.41;;;23.04;100.00
57801;BME280;43627;42.728;23.256;2023-06-22T13:00:06;95376.00;;;23.43;100.00